Terminal Aerodrome Forecast
Issued by NWS Bismarck, ND

Home | Current Version | Previous Version | Text Only | Print | Product List | Glossary On
Versions: 1 2 3 4 5 6 7 8 9 10 11 12 13 14 15 16 17 18
364
FTUS43 KBIS 280002 AAA
TAFBIS
TAF AMD
KBIS 280002Z 2800/2824 34021G30KT P6SM VCSH BKN100
     FM280100 31009KT P6SM SCT120
     FM280300 29005KT P6SM SKC
     FM281300 30012KT P6SM SKC
     FM281700 32018G28KT P6SM SCT070=

USA.gov is the U.S. government's official web portal to all federal, state and local government web resources and services.